This demonstration page uses our WeatherBlox Daily Observations layout. Learn more.

41.55636, -103.73856

Hourly Observations for July 12, 2020

Temp ( °F °C ) Dew Point ( °F °C ) Humidity (%) Winds ( mph kmh ) Pressure ( in mb ) Visibility ( mi km ) Precip ( " mm )
12:58 am 00:58 Clear 86 29.9 42 5.4 21 21 E 9 15 30.01 1016 10 16.0934 0 0
1:58 am 01:58 Clear 80 26.9 42 5.7 26 26 SE 12 19 30.01 1016 10 16.0934 0 0
2:58 am 02:58 Clear 76 24.6 44 6.4 31 31 SSE 14 22 30 1016 10 16.0934 0 0
3:58 am 03:58 Clear 74 23.5 48 8.9 39 39 SSE 21 33 30.01 1016 10 16.0934 0 0
4:58 am 04:58 Clear 72 22.2 51 10.8 49 49 SE 15 24 30 1016 10 16.0934 0 0
5:58 am 05:58 Clear 70 21.2 54 12.1 56 56 ESE 12 19 30.02 1017 10 16.0934 0 0
6:58 am 06:58 Clear 68 20.2 55 12.9 63 63 SE 6 9 30.01 1016 10 16.0934 0 0
7:58 am 07:58 Clear 66 19 56 13.3 70 70 E 5 7 29.98 1015 10 16.0934 0 0
8:58 am 08:58 Clear 65 18.1 57 13.7 76 76 ESE 7 11 29.97 1015 10 16.0934 0 0
9:58 am 09:58 Clear 63 17.4 58 14.3 82 82 ENE 7 11 29.95 1014 10 16.0934 0 0
10:58 am 10:58 Clear 65 18.4 60 15.6 84 84 S 16 26 29.93 1014 10 16.0934 0 0
11:58 am 11:58 Sunny 66 19.1 61 16.3 84 84 S 30 48 29.9 1012 10 16.0934 0 0
12:58 pm 12:58 Sunny 68 19.8 62 16.7 82 82 S 23 37 29.91 1013 10 16.0934 0 0
1:58 pm 13:58 Mostly Sunny 71 21.6 62 16.8 74 74 SSW 24 39 29.94 1014 10 16.0934 0 0
2:58 pm 14:58 Mostly Sunny 75 23.8 62 16.7 65 65 SSW 21 33 29.94 1014 10 16.0934 0 0
3:58 pm 15:58 Sunny 80 26.7 60 15.7 51 51 SSW 20 31 29.92 1013 10 16.0934 0 0
4:58 pm 16:58 Sunny 85 29.5 51 10.7 31 31 WSW 5 7 29.88 1012 10 16.0934 0 0
5:58 pm 17:58 Sunny 89 31.6 49 9.6 26 26 Calm 29.85 1011 10 16.0934 0 0
6:58 pm 18:58 Sunny 92 33.3 32 0.1 12 12 NNW 12 19 29.84 1011 10 16.0934 0 0
7:58 pm 19:58 Sunny 94 34.7 27 -3 9 9 WNW 9 15 29.82 1010 10 16.0934 0 0
10:56 pm 22:56 Sunny 95 35.1 30 -1 10 10 ENE 6 9 29.76 1008 10 16.0934 0 0
11:58 pm 23:58 Hazy 96 35.3 32 0.1 11 11 E 12 19 29.73 1007 2.75 4.425685 0 0

Powered by AerisWeather